createdAt,value
2022-09-04T00:00:14.000Z,286.02
2022-09-04T00:02:21.000Z,285.96
2022-09-04T00:03:47.000Z,286.02
2022-09-04T00:05:54.000Z,286.02
2022-09-04T00:08:45.000Z,285.9
2022-09-04T00:10:11.000Z,285.9
2022-09-04T00:12:17.000Z,285.77
2022-09-04T00:13:51.000Z,285.9
2022-09-04T00:15:57.000Z,285.96
2022-09-04T00:17:23.000Z,285.9
2022-09-04T00:19:29.000Z,285.77
2022-09-04T00:20:56.000Z,285.71
2022-09-04T00:23:02.000Z,285.59
2022-09-04T00:24:28.000Z,285.59
2022-09-04T00:26:35.000Z,285.59
2022-09-04T00:28:01.000Z,285.59
2022-09-04T00:30:07.000Z,285.52
2022-09-04T00:31:34.000Z,285.46
2022-09-04T00:33:40.000Z,285.34
2022-09-04T00:35:06.000Z,285.34
2022-09-04T00:37:12.000Z,285.34
2022-09-04T00:38:39.000Z,285.34
2022-09-04T00:40:45.000Z,285.4
2022-09-04T00:42:12.000Z,285.4
2022-09-04T00:44:18.000Z,285.27
2022-09-04T00:47:09.000Z,285.27
2022-09-04T00:48:36.000Z,285.15
2022-09-04T00:50:42.000Z,285.09
2022-09-04T00:52:08.000Z,285.02
2022-09-04T00:54:15.000Z,284.96
2022-09-04T00:55:41.000Z,285.02
2022-09-04T00:57:47.000Z,285.02
2022-09-04T00:59:14.000Z,285.02
2022-09-04T01:01:20.000Z,285.15
2022-09-04T01:02:47.000Z,285.15
2022-09-04T01:04:53.000Z,285.02
2022-09-04T01:06:20.000Z,285.02
2022-09-04T01:08:28.000Z,285.09
2022-09-04T01:09:54.000Z,284.96
2022-09-04T01:12:00.000Z,285.02
2022-09-04T01:13:27.000Z,284.9
2022-09-04T01:15:33.000Z,284.77
2022-09-04T01:16:59.000Z,284.71
2022-09-04T01:19:05.000Z,284.71
2022-09-04T01:20:32.000Z,284.65
2022-09-04T01:22:38.000Z,284.65
2022-09-04T01:25:29.000Z,284.52
2022-09-04T01:26:56.000Z,284.59
2022-09-04T01:29:02.000Z,284.59
2022-09-04T01:30:28.000Z,284.52
2022-09-04T01:32:34.000Z,284.4
2022-09-04T01:34:01.000Z,284.46
2022-09-04T01:36:07.000Z,284.52
2022-09-04T01:37:34.000Z,284.46
2022-09-04T01:39:40.000Z,284.46
2022-09-04T01:41:06.000Z,284.52
2022-09-04T01:43:12.000Z,284.4
2022-09-04T01:44:39.000Z,284.27
2022-09-04T01:46:45.000Z,284.15
2022-09-04T01:48:11.000Z,284.21
2022-09-04T01:50:17.000Z,284.21
2022-09-04T01:51:44.000Z,284.21
2022-09-04T01:53:50.000Z,284.21
2022-09-04T01:55:17.000Z,284.27
2022-09-04T01:57:23.000Z,284.21
2022-09-04T01:58:49.000Z,284.15
2022-09-04T02:00:55.000Z,284.09
2022-09-04T02:03:47.000Z,283.96
2022-09-04T02:05:13.000Z,284.02
2022-09-04T02:07:19.000Z,283.96
2022-09-04T02:08:46.000Z,283.96
2022-09-04T02:10:52.000Z,283.96
2022-09-04T02:12:19.000Z,284.02
2022-09-04T02:14:25.000Z,284.02
2022-09-04T02:15:51.000Z,283.96
2022-09-04T02:17:57.000Z,283.96
2022-09-04T02:19:24.000Z,283.9
2022-09-04T02:21:30.000Z,283.84
2022-09-04T02:22:56.000Z,283.84
2022-09-04T02:25:02.000Z,283.71
2022-09-04T02:26:29.000Z,283.77
2022-09-04T02:28:35.000Z,283.71
2022-09-04T02:30:01.000Z,283.71
2022-09-04T02:32:07.000Z,283.65
2022-09-04T02:33:34.000Z,283.71
2022-09-04T02:35:40.000Z,283.59
2022-09-04T02:37:07.000Z,283.59
2022-09-04T02:39:13.000Z,283.59
2022-09-04T02:42:04.000Z,283.59
2022-09-04T02:43:30.000Z,283.59
2022-09-04T02:45:36.000Z,283.52
2022-09-04T02:47:03.000Z,283.46
2022-09-04T02:49:09.000Z,283.46
2022-09-04T02:50:36.000Z,283.46
2022-09-04T02:52:42.000Z,283.34
2022-09-04T02:54:08.000Z,283.4
2022-09-04T02:56:14.000Z,283.34
2022-09-04T02:57:41.000Z,283.4
2022-09-04T02:59:47.000Z,283.4
2022-09-04T03:01:13.000Z,283.4
2022-09-04T03:03:19.000Z,283.4
2022-09-04T03:04:46.000Z,283.4
2022-09-04T03:06:52.000Z,283.34
2022-09-04T03:08:18.000Z,283.34
2022-09-04T03:10:25.000Z,283.27
2022-09-04T03:11:52.000Z,283.27
2022-09-04T03:13:58.000Z,283.21
2022-09-04T03:15:24.000Z,283.15
2022-09-04T03:17:30.000Z,283.09
2022-09-04T03:20:22.000Z,283.09
2022-09-04T03:21:49.000Z,283.09
2022-09-04T03:23:55.000Z,283.15
2022-09-04T03:25:21.000Z,283.21
2022-09-04T03:27:27.000Z,283.21
2022-09-04T03:28:54.000Z,283.21
2022-09-04T03:31:00.000Z,283.15
2022-09-04T03:32:26.000Z,283.15
2022-09-04T03:34:33.000Z,283.15
2022-09-04T03:35:59.000Z,283.09
2022-09-04T03:38:05.000Z,283.15
2022-09-04T03:39:32.000Z,283.09
2022-09-04T03:41:38.000Z,283.02
2022-09-04T03:43:04.000Z,283.02
2022-09-04T03:45:10.000Z,282.96
2022-09-04T03:46:37.000Z,282.96
2022-09-04T03:48:43.000Z,282.9
2022-09-04T03:50:10.000Z,282.96
2022-09-04T03:52:16.000Z,282.96
2022-09-04T03:53:42.000Z,282.96
2022-09-04T03:55:48.000Z,282.84
2022-09-04T03:58:39.000Z,282.84
2022-09-04T04:00:06.000Z,282.84
2022-09-04T04:02:12.000Z,282.84
2022-09-04T04:03:38.000Z,282.84
2022-09-04T04:05:44.000Z,282.96
2022-09-04T04:07:12.000Z,282.84
2022-09-04T04:09:19.000Z,282.84
2022-09-04T04:10:45.000Z,282.71
2022-09-04T04:12:51.000Z,282.77
2022-09-04T04:14:18.000Z,282.84
2022-09-04T04:16:24.000Z,282.9
2022-09-04T04:17:51.000Z,282.84
2022-09-04T04:19:57.000Z,282.71
2022-09-04T04:21:24.000Z,282.71
2022-09-04T04:23:30.000Z,282.65
2022-09-04T04:24:56.000Z,282.65
2022-09-04T04:27:02.000Z,282.59
2022-09-04T04:28:29.000Z,282.59
2022-09-04T04:30:35.000Z,282.52
2022-09-04T04:32:02.000Z,282.52
2022-09-04T04:34:08.000Z,282.52
2022-09-04T04:36:59.000Z,282.46
2022-09-04T04:38:25.000Z,282.46
2022-09-04T04:40:31.000Z,282.52
2022-09-04T04:41:58.000Z,282.52
2022-09-04T04:44:04.000Z,282.59
2022-09-04T04:45:30.000Z,282.59
2022-09-04T04:47:37.000Z,282.46
2022-09-04T04:49:03.000Z,282.46
2022-09-04T04:51:09.000Z,282.46
2022-09-04T04:52:36.000Z,282.46
2022-09-04T04:54:42.000Z,282.52
2022-09-04T04:56:08.000Z,282.59
2022-09-04T04:58:15.000Z,282.71
2022-09-04T04:59:42.000Z,282.9
2022-09-04T05:01:48.000Z,282.84
2022-09-04T05:03:15.000Z,282.71
2022-09-04T05:05:21.000Z,282.59
2022-09-04T05:06:47.000Z,282.59
2022-09-04T05:08:54.000Z,282.52
2022-09-04T05:10:20.000Z,282.52
2022-09-04T05:12:26.000Z,282.65
2022-09-04T05:15:17.000Z,282.71
2022-09-04T05:16:44.000Z,282.71
2022-09-04T05:18:50.000Z,282.77
2022-09-04T05:20:16.000Z,282.84
2022-09-04T05:22:22.000Z,282.84
2022-09-04T05:23:49.000Z,282.84
2022-09-04T05:25:55.000Z,282.84
2022-09-04T05:27:21.000Z,282.9
2022-09-04T05:29:28.000Z,283.02
2022-09-04T05:30:57.000Z,283.09
2022-09-04T05:33:03.000Z,283.09
2022-09-04T05:34:29.000Z,283.15
2022-09-04T05:36:35.000Z,283.27
2022-09-04T05:38:02.000Z,283.4
2022-09-04T05:40:08.000Z,283.46
2022-09-04T05:41:35.000Z,283.52
2022-09-04T05:43:41.000Z,283.77
2022-09-04T05:45:07.000Z,283.9
2022-09-04T05:47:14.000Z,283.96
2022-09-04T05:48:40.000Z,283.96
2022-09-04T05:50:46.000Z,284.09
2022-09-04T05:53:37.000Z,284.21
2022-09-04T05:55:04.000Z,284.21
2022-09-04T05:57:10.000Z,284.4
2022-09-04T05:58:37.000Z,284.4
2022-09-04T06:00:43.000Z,284.52
2022-09-04T06:02:09.000Z,284.46
2022-09-04T06:04:16.000Z,284.52
2022-09-04T06:05:42.000Z,284.59
2022-09-04T06:07:48.000Z,284.65
2022-09-04T06:09:15.000Z,284.65
2022-09-04T06:11:21.000Z,284.59
2022-09-04T06:12:48.000Z,284.65
2022-09-04T06:14:54.000Z,284.71
2022-09-04T06:16:20.000Z,284.84
2022-09-04T06:18:27.000Z,284.9
2022-09-04T06:19:53.000Z,284.96
2022-09-04T06:21:59.000Z,284.9
2022-09-04T06:23:26.000Z,284.77
2022-09-04T06:25:32.000Z,284.77
2022-09-04T06:26:59.000Z,284.84
2022-09-04T06:29:05.000Z,284.84
2022-09-04T06:31:56.000Z,284.96
2022-09-04T06:33:22.000Z,285.15
2022-09-04T06:35:28.000Z,285.21
2022-09-04T06:36:55.000Z,285.27
2022-09-04T06:39:01.000Z,285.34
2022-09-04T06:40:27.000Z,285.34
2022-09-04T06:42:34.000Z,285.52
2022-09-04T06:44:01.000Z,285.52
2022-09-04T06:46:09.000Z,285.59
2022-09-04T06:47:36.000Z,285.65
2022-09-04T06:49:42.000Z,285.84
2022-09-04T06:51:09.000Z,285.96
2022-09-04T06:53:15.000Z,286.09
2022-09-04T06:54:41.000Z,286.15
2022-09-04T06:56:48.000Z,286.27
2022-09-04T06:58:16.000Z,286.4
2022-09-04T07:00:22.000Z,286.59
2022-09-04T07:01:50.000Z,286.59
2022-09-04T07:03:56.000Z,286.71
2022-09-04T07:05:23.000Z,286.77
2022-09-04T07:07:29.000Z,286.96
2022-09-04T07:10:20.000Z,287.09
2022-09-04T07:11:47.000Z,287.02
2022-09-04T07:13:53.000Z,287.09
2022-09-04T07:15:19.000Z,287.15
2022-09-04T07:17:25.000Z,287.27
2022-09-04T07:18:52.000Z,287.27
2022-09-04T07:20:58.000Z,287.21
2022-09-04T07:22:25.000Z,287.21
2022-09-04T07:24:31.000Z,287.21
2022-09-04T07:25:57.000Z,287.27
2022-09-04T07:28:03.000Z,287.4
2022-09-04T07:29:30.000Z,287.4
2022-09-04T07:31:37.000Z,287.59
2022-09-04T07:33:03.000Z,287.77
2022-09-04T07:35:09.000Z,287.96
2022-09-04T07:36:36.000Z,288.02
2022-09-04T07:38:42.000Z,288.09
2022-09-04T07:40:15.000Z,288.27
2022-09-04T07:42:21.000Z,288.4
2022-09-04T07:43:48.000Z,288.52
2022-09-04T07:45:58.000Z,288.65
2022-09-04T07:48:50.000Z,288.77
2022-09-04T07:50:16.000Z,288.96
2022-09-04T07:52:22.000Z,289.02
2022-09-04T07:53:49.000Z,289.15
2022-09-04T07:55:55.000Z,289.21
2022-09-04T07:57:21.000Z,289.34
2022-09-04T07:59:27.000Z,289.46
2022-09-04T08:00:54.000Z,289.59
2022-09-04T08:03:00.000Z,289.71
2022-09-04T08:04:27.000Z,289.9
2022-09-04T08:06:33.000Z,289.96
2022-09-04T08:07:59.000Z,290.02
2022-09-04T08:10:05.000Z,290.21
2022-09-04T08:11:32.000Z,290.27
2022-09-04T08:13:38.000Z,290.46
2022-09-04T08:15:04.000Z,290.46
2022-09-04T08:17:10.000Z,290.59
2022-09-04T08:18:37.000Z,290.71
2022-09-04T08:20:43.000Z,290.9
2022-09-04T08:22:09.000Z,291.09
2022-09-04T08:24:16.000Z,291.15
2022-09-04T08:27:07.000Z,291.46
2022-09-04T08:28:34.000Z,291.59
2022-09-04T08:30:40.000Z,291.52
2022-09-04T08:32:06.000Z,291.71
2022-09-04T08:34:12.000Z,291.77
2022-09-04T08:35:39.000Z,291.84
2022-09-04T08:37:45.000Z,291.96
2022-09-04T08:39:12.000Z,292.02
2022-09-04T08:41:18.000Z,292.27
2022-09-04T08:42:44.000Z,292.34
2022-09-04T08:44:50.000Z,292.34
2022-09-04T08:46:17.000Z,292.46
2022-09-04T08:48:23.000Z,292.65
2022-09-04T08:49:50.000Z,292.9
2022-09-04T08:51:56.000Z,293.02
2022-09-04T08:53:22.000Z,293.15
2022-09-04T08:55:29.000Z,293.34
2022-09-04T08:56:55.000Z,293.46
2022-09-04T08:59:01.000Z,293.59
2022-09-04T09:00:28.000Z,293.65
2022-09-04T09:02:34.000Z,293.46
2022-09-04T09:05:25.000Z,293.71
2022-09-04T09:06:52.000Z,294.21
2022-09-04T09:08:58.000Z,294.02
2022-09-04T09:10:24.000Z,294.02
2022-09-04T09:12:30.000Z,293.77
2022-09-04T09:14:05.000Z,293.77
2022-09-04T09:16:11.000Z,293.96
2022-09-04T09:17:38.000Z,293.96
2022-09-04T09:19:44.000Z,293.84
2022-09-04T09:21:10.000Z,293.77
2022-09-04T09:23:16.000Z,293.84
2022-09-04T09:24:43.000Z,294.15
2022-09-04T09:26:49.000Z,294.34
2022-09-04T09:28:16.000Z,294.4
2022-09-04T09:30:22.000Z,294.4
2022-09-04T09:31:48.000Z,294.59
2022-09-04T09:33:55.000Z,294.65
2022-09-04T09:35:21.000Z,294.71
2022-09-04T09:37:27.000Z,294.84
2022-09-04T09:38:54.000Z,294.9
2022-09-04T09:41:00.000Z,295.15
2022-09-04T09:43:51.000Z,295.4
2022-09-04T09:45:18.000Z,295.46
2022-09-04T09:47:24.000Z,295.71
2022-09-04T09:48:50.000Z,295.65
2022-09-04T09:50:57.000Z,295.65
2022-09-04T09:52:23.000Z,295.77
2022-09-04T09:54:29.000Z,295.77
2022-09-04T09:55:56.000Z,295.77
2022-09-04T09:58:02.000Z,296.09
2022-09-04T09:59:28.000Z,296.27
2022-09-04T10:01:35.000Z,296.27
2022-09-04T10:03:01.000Z,296.15
2022-09-04T10:05:07.000Z,296.02
2022-09-04T10:06:34.000Z,295.9
2022-09-04T10:08:40.000Z,295.9
2022-09-04T10:10:07.000Z,295.9
2022-09-04T10:12:13.000Z,295.77
2022-09-04T10:13:39.000Z,295.65
2022-09-04T10:15:45.000Z,295.77
2022-09-04T10:17:12.000Z,296.09
2022-09-04T10:19:18.000Z,296.21
2022-09-04T10:22:09.000Z,296.27
2022-09-04T10:23:36.000Z,296.21
2022-09-04T10:25:42.000Z,296.46
2022-09-04T10:27:09.000Z,296.65
2022-09-04T10:29:15.000Z,296.71
2022-09-04T10:30:41.000Z,296.77
2022-09-04T10:32:48.000Z,296.96
2022-09-04T10:34:14.000Z,297.27
2022-09-04T10:36:20.000Z,297.46
2022-09-04T10:37:47.000Z,297.52
2022-09-04T10:39:53.000Z,297.52
2022-09-04T10:41:20.000Z,297.59
2022-09-04T10:43:26.000Z,297.59
2022-09-04T10:44:52.000Z,297.65
2022-09-04T10:46:59.000Z,297.52
2022-09-04T10:48:25.000Z,297.46
2022-09-04T10:50:33.000Z,297.77
2022-09-04T10:51:59.000Z,298.02
2022-09-04T10:54:05.000Z,297.96
2022-09-04T10:55:32.000Z,297.96
2022-09-04T10:57:38.000Z,297.71
2022-09-04T11:00:30.000Z,297.65
2022-09-04T11:01:57.000Z,297.65
2022-09-04T11:04:04.000Z,297.59
2022-09-04T11:05:30.000Z,297.52
2022-09-04T11:07:37.000Z,297.46
2022-09-04T11:09:03.000Z,297.34
2022-09-04T11:11:09.000Z,297.65
2022-09-04T11:12:36.000Z,297.59
2022-09-04T11:14:42.000Z,297.46
2022-09-04T11:16:08.000Z,297.46
2022-09-04T11:18:15.000Z,297.59
2022-09-04T11:19:41.000Z,297.59
2022-09-04T11:21:47.000Z,297.46
2022-09-04T11:23:14.000Z,297.4
2022-09-04T11:25:20.000Z,297.34
2022-09-04T11:26:48.000Z,297.34
2022-09-04T11:28:54.000Z,297.4
2022-09-04T11:30:21.000Z,297.34
2022-09-04T11:32:27.000Z,297.21
2022-09-04T11:33:54.000Z,297.27
2022-09-04T11:36:00.000Z,297.21
2022-09-04T11:38:51.000Z,297.27
2022-09-04T11:40:18.000Z,297.4
2022-09-04T11:42:24.000Z,297.4
2022-09-04T11:43:50.000Z,297.46
2022-09-04T11:45:56.000Z,297.9
2022-09-04T11:47:24.000Z,298.09
2022-09-04T11:49:30.000Z,297.77
2022-09-04T11:50:56.000Z,297.84
2022-09-04T11:53:02.000Z,298.02
2022-09-04T11:54:29.000Z,298.27
2022-09-04T11:56:35.000Z,298.34
2022-09-04T11:58:01.000Z,298.34
2022-09-04T12:00:08.000Z,298.46
2022-09-04T12:01:34.000Z,298.59
2022-09-04T12:03:40.000Z,298.59
2022-09-04T12:05:07.000Z,298.59
2022-09-04T12:07:13.000Z,298.65
2022-09-04T12:08:40.000Z,298.77
2022-09-04T12:10:46.000Z,298.77
2022-09-04T12:12:13.000Z,298.96
2022-09-04T12:14:19.000Z,299.21
2022-09-04T12:17:10.000Z,299.34
2022-09-04T12:18:37.000Z,299.21
2022-09-04T12:20:43.000Z,298.96
2022-09-04T12:22:09.000Z,298.71
2022-09-04T12:24:15.000Z,298.46
2022-09-04T12:25:42.000Z,298.59
2022-09-04T12:27:48.000Z,298.59
2022-09-04T12:29:15.000Z,298.59
2022-09-04T12:31:21.000Z,298.46
2022-09-04T12:32:47.000Z,298.27
2022-09-04T12:34:54.000Z,298.02
2022-09-04T12:36:20.000Z,298.09
2022-09-04T12:38:26.000Z,298.15
2022-09-04T12:39:53.000Z,298.27
2022-09-04T12:41:59.000Z,298.21
2022-09-04T12:43:26.000Z,298.09
2022-09-04T12:45:32.000Z,298.27
2022-09-04T12:46:58.000Z,298.27
2022-09-04T12:49:05.000Z,298.21
2022-09-04T12:50:31.000Z,298.21
2022-09-04T12:52:37.000Z,298.27
2022-09-04T12:55:29.000Z,298.4
2022-09-04T12:57:00.000Z,298.46
2022-09-04T12:59:06.000Z,298.52
2022-09-04T13:00:42.000Z,298.71
2022-09-04T13:02:53.000Z,298.71
2022-09-04T13:04:20.000Z,298.65
2022-09-04T13:06:31.000Z,298.4
2022-09-04T13:07:58.000Z,298.34
2022-09-04T13:10:04.000Z,298.21
2022-09-04T13:11:30.000Z,298.21
2022-09-04T13:13:37.000Z,298.46
2022-09-04T13:15:03.000Z,298.52
2022-09-04T13:17:09.000Z,298.34
2022-09-04T13:18:36.000Z,298.34
2022-09-04T13:20:42.000Z,298.27
2022-09-04T13:22:09.000Z,298.27
2022-09-04T13:24:15.000Z,298.34
2022-09-04T13:25:41.000Z,298.4
2022-09-04T13:27:47.000Z,298.15
2022-09-04T13:29:14.000Z,298.09
2022-09-04T13:31:20.000Z,298.21
2022-09-04T13:34:12.000Z,298.34
2022-09-04T13:35:41.000Z,298.27
2022-09-04T13:37:47.000Z,298.21
2022-09-04T13:39:14.000Z,298.09
2022-09-04T13:41:20.000Z,298.21
2022-09-04T13:42:47.000Z,298.27
2022-09-04T13:44:56.000Z,298.21
2022-09-04T13:46:23.000Z,298.15
2022-09-04T13:48:29.000Z,298.15
2022-09-04T13:49:56.000Z,298.34
2022-09-04T13:52:02.000Z,298.21
2022-09-04T13:53:29.000Z,298.21
2022-09-04T13:55:35.000Z,298.27
2022-09-04T13:57:02.000Z,298.34
2022-09-04T13:59:08.000Z,298.21
2022-09-04T14:00:34.000Z,298.02
2022-09-04T14:02:41.000Z,297.96
2022-09-04T14:04:07.000Z,297.96
2022-09-04T14:06:13.000Z,298.09
2022-09-04T14:07:40.000Z,298.02
2022-09-04T14:09:49.000Z,297.9
2022-09-04T14:14:13.000Z,297.96
2022-09-04T14:16:30.000Z,298.15
2022-09-04T14:17:57.000Z,298.09
2022-09-04T14:20:03.000Z,298.09
2022-09-04T14:21:29.000Z,298.15
2022-09-04T14:23:36.000Z,298.09
2022-09-04T14:25:02.000Z,298.09
2022-09-04T14:27:10.000Z,298.09
2022-09-04T14:28:39.000Z,298.09
2022-09-04T14:30:45.000Z,298.09
2022-09-04T14:32:12.000Z,298.09
2022-09-04T14:34:18.000Z,298.02
2022-09-04T14:35:45.000Z,298.02
2022-09-04T14:37:51.000Z,298.02
2022-09-04T14:39:18.000Z,298.02
2022-09-04T14:41:24.000Z,298.09
2022-09-04T14:42:51.000Z,298.09
2022-09-04T14:44:57.000Z,297.96
2022-09-04T14:46:23.000Z,297.9
2022-09-04T14:48:30.000Z,297.96
2022-09-04T14:52:49.000Z,297.96
2022-09-04T14:54:55.000Z,297.9
2022-09-04T14:56:21.000Z,297.9
2022-09-04T14:58:27.000Z,297.84
2022-09-04T14:59:54.000Z,297.84
2022-09-04T15:02:00.000Z,297.9
2022-09-04T15:03:27.000Z,297.9
2022-09-04T15:05:33.000Z,297.9
2022-09-04T15:07:00.000Z,297.84
2022-09-04T15:09:15.000Z,297.84
2022-09-04T15:10:42.000Z,297.9
2022-09-04T15:12:48.000Z,297.9
2022-09-04T15:14:15.000Z,297.84
2022-09-04T15:16:21.000Z,297.84
2022-09-04T15:17:47.000Z,297.84
2022-09-04T15:19:54.000Z,297.84
2022-09-04T15:21:20.000Z,297.84
2022-09-04T15:23:26.000Z,297.84
2022-09-04T15:24:53.000Z,297.84
2022-09-04T15:26:59.000Z,297.84
2022-09-04T15:29:50.000Z,297.9
2022-09-04T15:31:17.000Z,297.84
2022-09-04T15:33:23.000Z,297.84
2022-09-04T15:34:50.000Z,297.84
2022-09-04T15:36:56.000Z,297.77
2022-09-04T15:38:23.000Z,297.77
2022-09-04T15:40:29.000Z,297.77
2022-09-04T15:41:55.000Z,297.77
2022-09-04T15:44:02.000Z,297.77
2022-09-04T15:45:28.000Z,297.77
2022-09-04T15:47:34.000Z,297.71
2022-09-04T15:49:01.000Z,297.65
2022-09-04T15:51:07.000Z,297.65
2022-09-04T15:52:34.000Z,297.65
2022-09-04T15:54:40.000Z,297.65
2022-09-04T15:56:06.000Z,297.59
2022-09-04T15:58:12.000Z,297.59
2022-09-04T15:59:39.000Z,297.59
2022-09-04T16:01:45.000Z,297.59
2022-09-04T16:03:12.000Z,297.52
2022-09-04T16:05:18.000Z,297.52
2022-09-04T16:08:13.000Z,297.4
2022-09-04T16:09:40.000Z,297.46
2022-09-04T16:11:46.000Z,297.46
2022-09-04T16:13:13.000Z,297.46
2022-09-04T16:15:19.000Z,297.46
2022-09-04T16:16:45.000Z,297.46
2022-09-04T16:18:52.000Z,297.46
2022-09-04T16:20:18.000Z,297.4
2022-09-04T16:22:24.000Z,297.4
2022-09-04T16:23:51.000Z,297.46
2022-09-04T16:25:57.000Z,297.46
2022-09-04T16:27:24.000Z,297.46
2022-09-04T16:29:30.000Z,297.4
2022-09-04T16:30:56.000Z,297.46
2022-09-04T16:33:03.000Z,297.46
2022-09-04T16:34:45.000Z,297.34
2022-09-04T16:36:51.000Z,297.4
2022-09-04T16:38:17.000Z,297.4
2022-09-04T16:40:28.000Z,297.46
2022-09-04T16:41:54.000Z,297.46
2022-09-04T16:44:01.000Z,297.4
2022-09-04T16:46:52.000Z,297.4
2022-09-04T16:48:18.000Z,297.34
2022-09-04T16:50:39.000Z,297.4
2022-09-04T16:52:05.000Z,297.46
2022-09-04T16:54:11.000Z,297.46
2022-09-04T16:55:38.000Z,297.46
2022-09-04T16:57:48.000Z,297.4
2022-09-04T16:59:15.000Z,297.34
2022-09-04T17:01:21.000Z,297.27
2022-09-04T17:02:48.000Z,297.27
2022-09-04T17:04:54.000Z,297.21
2022-09-04T17:06:21.000Z,297.21
2022-09-04T17:08:27.000Z,297.15
2022-09-04T17:09:53.000Z,297.15
2022-09-04T17:11:59.000Z,297.09
2022-09-04T17:13:26.000Z,297.15
2022-09-04T17:15:32.000Z,297.09
2022-09-04T17:16:59.000Z,297.09
2022-09-04T17:19:05.000Z,297.09
2022-09-04T17:20:32.000Z,297.02
2022-09-04T17:28:30.000Z,296.9
2022-09-04T17:32:16.000Z,296.84
2022-09-04T17:41:58.000Z,296.52
2022-09-04T17:44:14.000Z,296.4
2022-09-04T17:45:40.000Z,296.34
2022-09-04T17:47:50.000Z,296.21
2022-09-04T17:49:16.000Z,296.21
2022-09-04T17:51:22.000Z,296.09
2022-09-04T17:52:49.000Z,296.09
2022-09-04T17:54:55.000Z,295.96
2022-09-04T17:56:21.000Z,295.96
2022-09-04T17:58:28.000Z,295.9
2022-09-04T17:59:58.000Z,295.84
2022-09-04T18:02:04.000Z,295.71
2022-09-04T18:03:31.000Z,295.59
2022-09-04T18:05:37.000Z,295.46
2022-09-04T18:07:11.000Z,295.34
2022-09-04T18:10:12.000Z,295.21
2022-09-04T18:11:39.000Z,295.09
2022-09-04T18:13:45.000Z,294.96
2022-09-04T18:15:11.000Z,294.9
2022-09-04T18:17:38.000Z,294.71
2022-09-04T18:20:29.000Z,294.52
2022-09-04T18:21:56.000Z,294.46
2022-09-04T18:26:03.000Z,294.21
2022-09-04T18:26:36.000Z,294.21
2022-09-04T18:28:05.000Z,294.15
2022-09-04T18:30:16.000Z,294.15
2022-09-04T18:38:51.000Z,293.84
2022-09-04T18:41:13.000Z,293.77
2022-09-04T18:52:06.000Z,293.09
2022-09-04T18:54:12.000Z,293.02
2022-09-04T18:55:39.000Z,292.96
2022-09-04T18:57:45.000Z,292.84
2022-09-04T18:59:13.000Z,292.71
2022-09-04T19:01:19.000Z,292.65
2022-09-04T19:02:51.000Z,292.65
2022-09-04T19:04:58.000Z,292.59
2022-09-04T19:06:24.000Z,292.59
2022-09-04T19:08:30.000Z,292.52
2022-09-04T19:09:57.000Z,292.52
2022-09-04T19:12:03.000Z,292.34
2022-09-04T19:13:30.000Z,292.27
2022-09-04T19:15:36.000Z,292.21
2022-09-04T19:18:26.000Z,292.21
2022-09-04T19:19:53.000Z,292.21
2022-09-04T19:22:01.000Z,292.21
2022-09-04T19:23:27.000Z,292.09
2022-09-04T19:25:34.000Z,291.96
2022-09-04T19:27:00.000Z,291.84
2022-09-04T19:29:24.000Z,291.77
2022-09-04T19:30:51.000Z,291.71
2022-09-04T19:32:57.000Z,291.71
2022-09-04T19:34:23.000Z,291.71
2022-09-04T19:36:29.000Z,291.59
2022-09-04T19:37:56.000Z,291.52
2022-09-04T19:48:02.000Z,291.15
2022-09-04T19:49:29.000Z,291.09
2022-09-04T19:55:34.000Z,291.02
2022-09-04T19:57:00.000Z,291.09
2022-09-04T19:59:37.000Z,291.21
2022-09-04T20:01:10.000Z,291.15
2022-09-04T20:03:16.000Z,291.09
2022-09-04T20:04:55.000Z,290.96
2022-09-04T20:07:01.000Z,290.71
2022-09-04T20:09:52.000Z,290.65
2022-09-04T20:11:19.000Z,290.59
2022-09-04T20:13:39.000Z,290.59
2022-09-04T20:15:05.000Z,290.65
2022-09-04T20:17:12.000Z,290.59
2022-09-04T20:18:38.000Z,290.52
2022-09-04T20:20:44.000Z,290.46
2022-09-04T20:22:11.000Z,290.4
2022-09-04T20:24:17.000Z,290.34
2022-09-04T20:25:43.000Z,290.34
2022-09-04T20:27:49.000Z,290.27
2022-09-04T20:29:16.000Z,290.27
2022-09-04T20:31:22.000Z,290.27
2022-09-04T20:33:01.000Z,290.27
2022-09-04T20:35:07.000Z,290.34
2022-09-04T20:36:38.000Z,290.4
2022-09-04T20:38:49.000Z,290.46
2022-09-04T20:40:15.000Z,290.34
2022-09-04T20:42:22.000Z,290.21
2022-09-04T20:43:48.000Z,290.09
2022-09-04T20:45:54.000Z,289.96
2022-09-04T20:55:50.000Z,289.71
2022-09-04T20:57:16.000Z,289.71
2022-09-04T21:05:19.000Z,289.65
2022-09-04T21:06:46.000Z,289.65
2022-09-04T21:08:52.000Z,289.65
2022-09-04T21:10:19.000Z,289.52
2022-09-04T21:12:25.000Z,289.4
2022-09-04T21:13:51.000Z,289.34
2022-09-04T21:15:57.000Z,289.27
2022-09-04T21:17:24.000Z,289.34
2022-09-04T21:19:38.000Z,289.21
2022-09-04T21:21:05.000Z,289.34
2022-09-04T21:23:11.000Z,289.21
2022-09-04T21:24:37.000Z,289.15
2022-09-04T21:26:43.000Z,289.09
2022-09-04T21:28:10.000Z,289.09
2022-09-04T21:30:16.000Z,289.02
2022-09-04T21:31:48.000Z,289.02
2022-09-04T21:33:54.000Z,289.09
2022-09-04T21:35:21.000Z,289.09
2022-09-04T21:37:27.000Z,288.96
2022-09-04T21:40:18.000Z,288.9
2022-09-04T21:42:16.000Z,288.9
2022-09-04T21:44:22.000Z,288.84
2022-09-04T21:45:49.000Z,288.84
2022-09-04T21:47:55.000Z,288.77
2022-09-04T21:49:22.000Z,288.71
2022-09-04T21:51:30.000Z,288.65
2022-09-04T21:52:57.000Z,288.65
2022-09-04T21:55:03.000Z,288.65
2022-09-04T22:03:57.000Z,288.46
2022-09-04T22:06:03.000Z,288.4
2022-09-04T22:07:30.000Z,288.4
2022-09-04T22:15:48.000Z,288.27
2022-09-04T22:17:15.000Z,288.15
2022-09-04T22:19:21.000Z,288.15
2022-09-04T22:20:47.000Z,288.15
2022-09-04T22:22:53.000Z,288.15
2022-09-04T22:24:20.000Z,288.09
2022-09-04T22:26:26.000Z,288.02
2022-09-04T22:27:52.000Z,288.02
2022-09-04T22:30:13.000Z,288.02
2022-09-04T22:33:04.000Z,287.9
2022-09-04T22:34:31.000Z,287.9
2022-09-04T22:36:37.000Z,287.96
2022-09-04T22:38:03.000Z,287.96
2022-09-04T22:40:09.000Z,287.96
2022-09-04T22:41:36.000Z,287.96
2022-09-04T22:43:42.000Z,287.96
2022-09-04T22:45:11.000Z,287.96
2022-09-04T22:47:17.000Z,287.96
2022-09-04T22:48:44.000Z,287.96
2022-09-04T22:51:01.000Z,287.84
2022-09-04T22:52:28.000Z,287.84
2022-09-04T22:54:34.000Z,287.77
2022-09-04T22:56:00.000Z,287.77
2022-09-04T22:58:27.000Z,287.77
2022-09-04T22:59:54.000Z,287.77
2022-09-04T23:02:00.000Z,287.71
2022-09-04T23:03:38.000Z,287.71
2022-09-04T23:05:44.000Z,287.77
2022-09-04T23:07:11.000Z,287.77
2022-09-04T23:15:59.000Z,287.59
2022-09-04T23:18:51.000Z,287.46
2022-09-04T23:28:05.000Z,287.4
2022-09-04T23:30:32.000Z,287.4
2022-09-04T23:32:00.000Z,287.34
2022-09-04T23:34:13.000Z,287.27
2022-09-04T23:35:40.000Z,287.27
2022-09-04T23:37:46.000Z,287.27
2022-09-04T23:39:24.000Z,287.27
2022-09-04T23:41:30.000Z,287.21
2022-09-04T23:42:57.000Z,287.21
2022-09-04T23:45:03.000Z,287.15
2022-09-04T23:46:30.000Z,287.21
2022-09-04T23:48:36.000Z,287.21
2022-09-04T23:50:02.000Z,287.21
2022-09-04T23:52:08.000Z,287.15
2022-09-04T23:53:35.000Z,287.09
2022-09-04T23:55:41.000Z,287.02
2022-09-04T23:57:14.000Z,287.09
2022-09-04T23:59:31.000Z,287.02
